sensor_id;sensor_type;location;lat;lon;timestamp;P1;durP1;ratioP1;P2;durP2;ratioP2
18168;SDS011;49877;50.398;30.324;2022-09-02T00:01:24;20.70;;;11.03;;
18168;SDS011;49877;50.398;30.324;2022-09-02T00:03:55;22.97;;;10.20;;
18168;SDS011;49877;50.398;30.324;2022-09-02T00:06:23;16.43;;;10.37;;
18168;SDS011;49877;50.398;30.324;2022-09-02T00:08:50;16.97;;;10.00;;
18168;SDS011;49877;50.398;30.324;2022-09-02T00:11:18;17.80;;;10.20;;
18168;SDS011;49877;50.398;30.324;2022-09-02T00:13:52;15.30;;;9.33;;
18168;SDS011;49877;50.398;30.324;2022-09-02T00:16:20;15.43;;;8.97;;
18168;SDS011;49877;50.398;30.324;2022-09-02T00:18:48;14.43;;;8.93;;
18168;SDS011;49877;50.398;30.324;2022-09-02T00:21:16;14.93;;;8.47;;
18168;SDS011;49877;50.398;30.324;2022-09-02T00:23:43;14.93;;;8.87;;
18168;SDS011;49877;50.398;30.324;2022-09-02T00:26:11;14.37;;;8.30;;
18168;SDS011;49877;50.398;30.324;2022-09-02T00:28:38;14.30;;;8.37;;
18168;SDS011;49877;50.398;30.324;2022-09-02T00:31:07;16.00;;;9.03;;
18168;SDS011;49877;50.398;30.324;2022-09-02T00:33:34;14.47;;;8.90;;
18168;SDS011;49877;50.398;30.324;2022-09-02T00:36:02;16.87;;;8.47;;
18168;SDS011;49877;50.398;30.324;2022-09-02T00:38:29;17.47;;;9.10;;
18168;SDS011;49877;50.398;30.324;2022-09-02T00:40:58;15.93;;;8.63;;
18168;SDS011;49877;50.398;30.324;2022-09-02T00:43:36;13.73;;;8.10;;
18168;SDS011;49877;50.398;30.324;2022-09-02T00:46:06;17.00;;;8.60;;
18168;SDS011;49877;50.398;30.324;2022-09-02T00:48:35;18.00;;;9.03;;
18168;SDS011;49877;50.398;30.324;2022-09-02T00:51:05;15.37;;;8.47;;
18168;SDS011;49877;50.398;30.324;2022-09-02T00:53:33;22.50;;;9.87;;
18168;SDS011;49877;50.398;30.324;2022-09-02T00:56:03;19.93;;;9.20;;
18168;SDS011;49877;50.398;30.324;2022-09-02T00:58:33;15.57;;;9.30;;
18168;SDS011;49877;50.398;30.324;2022-09-02T01:01:02;16.30;;;9.70;;
18168;SDS011;49877;50.398;30.324;2022-09-02T01:03:31;15.83;;;9.10;;
18168;SDS011;49877;50.398;30.324;2022-09-02T01:05:58;16.30;;;9.53;;
18168;SDS011;49877;50.398;30.324;2022-09-02T01:08:28;14.53;;;9.23;;
18168;SDS011;49877;50.398;30.324;2022-09-02T01:10:58;18.83;;;9.53;;
18168;SDS011;49877;50.398;30.324;2022-09-02T01:13:27;18.67;;;11.07;;
18168;SDS011;49877;50.398;30.324;2022-09-02T01:15:56;21.37;;;11.67;;
18168;SDS011;49877;50.398;30.324;2022-09-02T01:18:39;24.67;;;12.73;;
18168;SDS011;49877;50.398;30.324;2022-09-02T01:21:11;21.30;;;10.87;;
18168;SDS011;49877;50.398;30.324;2022-09-02T01:23:40;20.33;;;10.90;;
18168;SDS011;49877;50.398;30.324;2022-09-02T01:26:07;20.17;;;11.50;;
18168;SDS011;49877;50.398;30.324;2022-09-02T01:28:35;18.87;;;11.57;;
18168;SDS011;49877;50.398;30.324;2022-09-02T01:31:02;19.73;;;11.17;;
18168;SDS011;49877;50.398;30.324;2022-09-02T01:33:29;19.73;;;10.60;;
18168;SDS011;49877;50.398;30.324;2022-09-02T01:35:56;21.87;;;11.77;;
18168;SDS011;49877;50.398;30.324;2022-09-02T01:38:24;18.63;;;11.30;;
18168;SDS011;49877;50.398;30.324;2022-09-02T01:40:52;21.20;;;12.40;;
18168;SDS011;49877;50.398;30.324;2022-09-02T01:43:20;25.23;;;12.70;;
18168;SDS011;49877;50.398;30.324;2022-09-02T01:45:50;24.57;;;13.53;;
18168;SDS011;49877;50.398;30.324;2022-09-02T01:48:19;26.53;;;13.30;;
18168;SDS011;49877;50.398;30.324;2022-09-02T01:50:47;23.83;;;13.80;;
18168;SDS011;49877;50.398;30.324;2022-09-02T01:53:15;23.80;;;14.27;;
18168;SDS011;49877;50.398;30.324;2022-09-02T01:55:42;26.60;;;14.57;;
18168;SDS011;49877;50.398;30.324;2022-09-02T01:58:11;24.50;;;14.23;;
18168;SDS011;49877;50.398;30.324;2022-09-02T02:00:38;24.23;;;13.53;;
18168;SDS011;49877;50.398;30.324;2022-09-02T02:03:05;26.53;;;14.13;;
18168;SDS011;49877;50.398;30.324;2022-09-02T02:05:32;28.30;;;14.83;;
18168;SDS011;49877;50.398;30.324;2022-09-02T02:07:59;24.23;;;14.87;;
18168;SDS011;49877;50.398;30.324;2022-09-02T02:10:27;25.33;;;14.37;;
18168;SDS011;49877;50.398;30.324;2022-09-02T02:12:54;26.77;;;14.77;;
18168;SDS011;49877;50.398;30.324;2022-09-02T02:15:22;28.13;;;14.70;;
18168;SDS011;49877;50.398;30.324;2022-09-02T02:17:49;23.17;;;13.50;;
18168;SDS011;49877;50.398;30.324;2022-09-02T02:20:17;26.53;;;14.40;;
18168;SDS011;49877;50.398;30.324;2022-09-02T02:22:45;25.53;;;14.00;;
18168;SDS011;49877;50.398;30.324;2022-09-02T02:25:13;26.47;;;14.23;;
18168;SDS011;49877;50.398;30.324;2022-09-02T02:27:42;28.00;;;14.10;;
18168;SDS011;49877;50.398;30.324;2022-09-02T02:30:10;24.30;;;13.67;;
18168;SDS011;49877;50.398;30.324;2022-09-02T02:32:39;23.57;;;13.40;;
18168;SDS011;49877;50.398;30.324;2022-09-02T02:35:07;24.57;;;12.93;;
18168;SDS011;49877;50.398;30.324;2022-09-02T02:37:35;25.23;;;12.97;;
18168;SDS011;49877;50.398;30.324;2022-09-02T02:40:02;25.27;;;13.63;;
18168;SDS011;49877;50.398;30.324;2022-09-02T02:42:29;25.07;;;13.23;;
18168;SDS011;49877;50.398;30.324;2022-09-02T02:44:55;25.40;;;13.20;;
18168;SDS011;49877;50.398;30.324;2022-09-02T02:47:23;23.67;;;12.57;;
18168;SDS011;49877;50.398;30.324;2022-09-02T02:49:52;21.97;;;13.23;;
18168;SDS011;49877;50.398;30.324;2022-09-02T02:52:19;27.33;;;13.47;;
18168;SDS011;49877;50.398;30.324;2022-09-02T02:54:46;22.13;;;12.77;;
18168;SDS011;49877;50.398;30.324;2022-09-02T02:57:12;24.90;;;13.13;;
18168;SDS011;49877;50.398;30.324;2022-09-02T02:59:39;30.07;;;15.20;;
18168;SDS011;49877;50.398;30.324;2022-09-02T03:02:06;26.13;;;14.83;;
18168;SDS011;49877;50.398;30.324;2022-09-02T03:04:33;24.10;;;13.07;;
18168;SDS011;49877;50.398;30.324;2022-09-02T03:07:01;23.13;;;12.10;;
18168;SDS011;49877;50.398;30.324;2022-09-02T03:09:30;25.83;;;12.80;;
18168;SDS011;49877;50.398;30.324;2022-09-02T03:11:58;23.70;;;12.67;;
18168;SDS011;49877;50.398;30.324;2022-09-02T03:14:25;23.30;;;12.03;;
18168;SDS011;49877;50.398;30.324;2022-09-02T03:16:52;24.87;;;12.10;;
18168;SDS011;49877;50.398;30.324;2022-09-02T03:19:19;23.37;;;13.10;;
18168;SDS011;49877;50.398;30.324;2022-09-02T03:21:46;22.70;;;12.03;;
18168;SDS011;49877;50.398;30.324;2022-09-02T03:24:14;23.63;;;12.20;;
18168;SDS011;49877;50.398;30.324;2022-09-02T03:26:41;20.87;;;11.77;;
18168;SDS011;49877;50.398;30.324;2022-09-02T03:29:08;23.50;;;12.87;;
18168;SDS011;49877;50.398;30.324;2022-09-02T03:31:36;21.53;;;13.30;;
18168;SDS011;49877;50.398;30.324;2022-09-02T03:34:03;26.80;;;14.00;;
18168;SDS011;49877;50.398;30.324;2022-09-02T03:36:30;29.33;;;14.93;;
18168;SDS011;49877;50.398;30.324;2022-09-02T03:39:03;27.70;;;15.00;;
18168;SDS011;49877;50.398;30.324;2022-09-02T03:41:32;33.43;;;16.27;;
18168;SDS011;49877;50.398;30.324;2022-09-02T03:43:59;31.63;;;16.60;;
18168;SDS011;49877;50.398;30.324;2022-09-02T03:46:26;33.93;;;17.97;;
18168;SDS011;49877;50.398;30.324;2022-09-02T03:48:53;39.93;;;20.07;;
18168;SDS011;49877;50.398;30.324;2022-09-02T03:51:23;35.23;;;18.50;;
18168;SDS011;49877;50.398;30.324;2022-09-02T03:53:50;39.83;;;18.13;;
18168;SDS011;49877;50.398;30.324;2022-09-02T03:56:18;36.27;;;17.27;;
18168;SDS011;49877;50.398;30.324;2022-09-02T03:58:47;32.57;;;16.33;;
18168;SDS011;49877;50.398;30.324;2022-09-02T04:01:16;30.37;;;15.27;;
18168;SDS011;49877;50.398;30.324;2022-09-02T04:03:45;26.87;;;15.47;;
18168;SDS011;49877;50.398;30.324;2022-09-02T04:06:13;25.37;;;14.60;;
18168;SDS011;49877;50.398;30.324;2022-09-02T04:08:41;26.97;;;14.03;;
18168;SDS011;49877;50.398;30.324;2022-09-02T04:11:09;24.80;;;14.27;;
18168;SDS011;49877;50.398;30.324;2022-09-02T04:13:39;36.70;;;17.07;;
18168;SDS011;49877;50.398;30.324;2022-09-02T04:16:07;39.47;;;21.60;;
18168;SDS011;49877;50.398;30.324;2022-09-02T04:18:35;44.87;;;23.20;;
18168;SDS011;49877;50.398;30.324;2022-09-02T04:21:02;47.07;;;22.73;;
18168;SDS011;49877;50.398;30.324;2022-09-02T04:23:30;44.60;;;21.37;;
18168;SDS011;49877;50.398;30.324;2022-09-02T04:25:57;43.63;;;21.00;;
18168;SDS011;49877;50.398;30.324;2022-09-02T04:28:24;43.00;;;21.67;;
18168;SDS011;49877;50.398;30.324;2022-09-02T04:30:51;42.53;;;21.27;;
18168;SDS011;49877;50.398;30.324;2022-09-02T04:33:19;42.27;;;21.03;;
18168;SDS011;49877;50.398;30.324;2022-09-02T04:35:46;44.63;;;20.23;;
18168;SDS011;49877;50.398;30.324;2022-09-02T04:38:13;42.93;;;21.70;;
18168;SDS011;49877;50.398;30.324;2022-09-02T04:40:41;42.40;;;20.83;;
18168;SDS011;49877;50.398;30.324;2022-09-02T04:43:09;46.27;;;21.73;;
18168;SDS011;49877;50.398;30.324;2022-09-02T04:45:37;33.77;;;18.37;;
18168;SDS011;49877;50.398;30.324;2022-09-02T04:48:05;41.20;;;20.00;;
18168;SDS011;49877;50.398;30.324;2022-09-02T04:50:34;44.17;;;22.37;;
18168;SDS011;49877;50.398;30.324;2022-09-02T04:53:01;47.90;;;21.80;;
18168;SDS011;49877;50.398;30.324;2022-09-02T04:55:28;37.37;;;20.83;;
18168;SDS011;49877;50.398;30.324;2022-09-02T04:57:55;43.57;;;22.30;;
18168;SDS011;49877;50.398;30.324;2022-09-02T05:00:23;41.77;;;20.57;;
18168;SDS011;49877;50.398;30.324;2022-09-02T05:02:52;39.17;;;20.40;;
18168;SDS011;49877;50.398;30.324;2022-09-02T05:05:19;41.93;;;20.77;;
18168;SDS011;49877;50.398;30.324;2022-09-02T05:07:48;38.90;;;19.37;;
18168;SDS011;49877;50.398;30.324;2022-09-02T05:10:14;38.27;;;19.77;;
18168;SDS011;49877;50.398;30.324;2022-09-02T05:12:42;42.77;;;21.73;;
18168;SDS011;49877;50.398;30.324;2022-09-02T05:15:09;40.33;;;20.73;;
18168;SDS011;49877;50.398;30.324;2022-09-02T05:17:36;39.30;;;20.53;;
18168;SDS011;49877;50.398;30.324;2022-09-02T05:20:04;55.50;;;27.93;;
18168;SDS011;49877;50.398;30.324;2022-09-02T05:22:32;58.67;;;28.87;;
18168;SDS011;49877;50.398;30.324;2022-09-02T05:25:01;58.73;;;30.20;;
18168;SDS011;49877;50.398;30.324;2022-09-02T05:27:29;56.77;;;28.80;;
18168;SDS011;49877;50.398;30.324;2022-09-02T05:29:57;74.93;;;36.80;;
18168;SDS011;49877;50.398;30.324;2022-09-02T05:32:24;74.47;;;34.17;;
18168;SDS011;49877;50.398;30.324;2022-09-02T05:34:52;71.33;;;37.87;;
18168;SDS011;49877;50.398;30.324;2022-09-02T05:37:20;86.23;;;42.53;;
18168;SDS011;49877;50.398;30.324;2022-09-02T05:39:48;83.33;;;42.30;;
18168;SDS011;49877;50.398;30.324;2022-09-02T05:42:17;96.20;;;46.50;;
18168;SDS011;49877;50.398;30.324;2022-09-02T05:44:44;90.93;;;45.23;;
18168;SDS011;49877;50.398;30.324;2022-09-02T05:47:12;88.37;;;44.77;;
18168;SDS011;49877;50.398;30.324;2022-09-02T05:49:39;96.27;;;47.50;;
18168;SDS011;49877;50.398;30.324;2022-09-02T05:52:05;108.23;;;53.53;;
18168;SDS011;49877;50.398;30.324;2022-09-02T05:54:35;113.80;;;57.47;;
18168;SDS011;49877;50.398;30.324;2022-09-02T05:57:03;136.33;;;62.97;;
18168;SDS011;49877;50.398;30.324;2022-09-02T05:59:34;123.33;;;61.23;;
18168;SDS011;49877;50.398;30.324;2022-09-02T06:02:05;129.87;;;65.77;;
18168;SDS011;49877;50.398;30.324;2022-09-02T06:04:35;151.93;;;76.00;;
18168;SDS011;49877;50.398;30.324;2022-09-02T06:07:03;159.47;;;81.03;;
18168;SDS011;49877;50.398;30.324;2022-09-02T06:09:29;167.33;;;81.97;;
18168;SDS011;49877;50.398;30.324;2022-09-02T06:11:56;190.97;;;95.67;;
18168;SDS011;49877;50.398;30.324;2022-09-02T06:14:23;261.17;;;128.13;;
18168;SDS011;49877;50.398;30.324;2022-09-02T06:16:53;319.77;;;151.03;;
18168;SDS011;49877;50.398;30.324;2022-09-02T06:19:20;358.90;;;175.17;;
18168;SDS011;49877;50.398;30.324;2022-09-02T06:21:49;298.57;;;148.23;;
18168;SDS011;49877;50.398;30.324;2022-09-02T06:24:17;341.43;;;171.20;;
18168;SDS011;49877;50.398;30.324;2022-09-02T06:26:44;403.17;;;200.17;;
18168;SDS011;49877;50.398;30.324;2022-09-02T06:29:11;422.50;;;216.77;;
18168;SDS011;49877;50.398;30.324;2022-09-02T06:31:39;270.83;;;134.57;;
18168;SDS011;49877;50.398;30.324;2022-09-02T06:34:07;230.33;;;114.07;;
18168;SDS011;49877;50.398;30.324;2022-09-02T06:36:38;193.70;;;96.97;;
18168;SDS011;49877;50.398;30.324;2022-09-02T06:39:06;246.73;;;118.97;;
18168;SDS011;49877;50.398;30.324;2022-09-02T06:41:32;230.97;;;115.20;;
18168;SDS011;49877;50.398;30.324;2022-09-02T06:44:01;123.77;;;61.43;;
18168;SDS011;49877;50.398;30.324;2022-09-02T06:46:30;109.67;;;54.80;;
18168;SDS011;49877;50.398;30.324;2022-09-02T06:48:59;96.37;;;48.90;;
18168;SDS011;49877;50.398;30.324;2022-09-02T06:51:31;87.20;;;45.67;;
18168;SDS011;49877;50.398;30.324;2022-09-02T06:53:59;54.27;;;28.13;;
18168;SDS011;49877;50.398;30.324;2022-09-02T06:56:26;40.10;;;21.33;;
18168;SDS011;49877;50.398;30.324;2022-09-02T06:58:53;31.00;;;17.60;;
18168;SDS011;49877;50.398;30.324;2022-09-02T07:01:21;27.50;;;13.47;;
18168;SDS011;49877;50.398;30.324;2022-09-02T07:03:49;20.43;;;10.87;;
18168;SDS011;49877;50.398;30.324;2022-09-02T07:06:35;14.70;;;6.67;;
18168;SDS011;49877;50.398;30.324;2022-09-02T07:09:03;20.20;;;8.63;;
18168;SDS011;49877;50.398;30.324;2022-09-02T07:11:31;12.03;;;7.10;;
18168;SDS011;49877;50.398;30.324;2022-09-02T07:13:58;11.93;;;6.33;;
18168;SDS011;49877;50.398;30.324;2022-09-02T07:16:26;14.43;;;8.60;;
18168;SDS011;49877;50.398;30.324;2022-09-02T07:18:54;11.30;;;4.90;;
18168;SDS011;49877;50.398;30.324;2022-09-02T07:21:21;9.60;;;4.77;;
18168;SDS011;49877;50.398;30.324;2022-09-02T07:23:50;8.57;;;4.90;;
18168;SDS011;49877;50.398;30.324;2022-09-02T07:26:16;12.20;;;6.10;;
18168;SDS011;49877;50.398;30.324;2022-09-02T07:28:43;11.83;;;6.43;;
18168;SDS011;49877;50.398;30.324;2022-09-02T07:31:11;11.67;;;6.73;;
18168;SDS011;49877;50.398;30.324;2022-09-02T07:33:40;9.80;;;5.27;;
18168;SDS011;49877;50.398;30.324;2022-09-02T07:36:09;10.90;;;5.50;;
18168;SDS011;49877;50.398;30.324;2022-09-02T07:38:36;14.47;;;6.57;;
18168;SDS011;49877;50.398;30.324;2022-09-02T07:41:06;11.80;;;6.70;;
18168;SDS011;49877;50.398;30.324;2022-09-02T07:43:34;12.70;;;5.97;;
18168;SDS011;49877;50.398;30.324;2022-09-02T07:46:04;9.73;;;5.10;;
18168;SDS011;49877;50.398;30.324;2022-09-02T07:48:32;7.63;;;4.50;;
18168;SDS011;49877;50.398;30.324;2022-09-02T07:51:00;12.03;;;5.37;;
18168;SDS011;49877;50.398;30.324;2022-09-02T07:53:28;9.17;;;5.20;;
18168;SDS011;49877;50.398;30.324;2022-09-02T07:55:56;10.43;;;4.53;;
18168;SDS011;49877;50.398;30.324;2022-09-02T07:58:24;7.23;;;3.70;;
18168;SDS011;49877;50.398;30.324;2022-09-02T08:00:52;5.80;;;3.40;;
18168;SDS011;49877;50.398;30.324;2022-09-02T08:03:20;7.37;;;3.00;;
18168;SDS011;49877;50.398;30.324;2022-09-02T08:05:48;5.83;;;3.13;;
18168;SDS011;49877;50.398;30.324;2022-09-02T08:08:15;6.83;;;3.77;;
18168;SDS011;49877;50.398;30.324;2022-09-02T08:10:44;7.10;;;3.87;;
18168;SDS011;49877;50.398;30.324;2022-09-02T08:13:11;7.50;;;3.57;;
18168;SDS011;49877;50.398;30.324;2022-09-02T08:15:40;7.43;;;4.30;;
18168;SDS011;49877;50.398;30.324;2022-09-02T08:18:07;4.57;;;3.20;;
18168;SDS011;49877;50.398;30.324;2022-09-02T08:20:34;4.40;;;2.70;;
18168;SDS011;49877;50.398;30.324;2022-09-02T08:23:02;4.30;;;2.30;;
18168;SDS011;49877;50.398;30.324;2022-09-02T08:25:30;5.63;;;2.70;;
18168;SDS011;49877;50.398;30.324;2022-09-02T08:27:57;4.27;;;2.93;;
18168;SDS011;49877;50.398;30.324;2022-09-02T08:30:24;5.30;;;3.37;;
18168;SDS011;49877;50.398;30.324;2022-09-02T08:32:52;9.37;;;3.23;;
18168;SDS011;49877;50.398;30.324;2022-09-02T08:35:19;5.13;;;3.20;;
18168;SDS011;49877;50.398;30.324;2022-09-02T08:37:46;3.87;;;2.77;;
18168;SDS011;49877;50.398;30.324;2022-09-02T08:40:14;4.40;;;2.70;;
18168;SDS011;49877;50.398;30.324;2022-09-02T08:42:44;8.60;;;3.90;;
18168;SDS011;49877;50.398;30.324;2022-09-02T08:45:16;6.77;;;4.07;;
18168;SDS011;49877;50.398;30.324;2022-09-02T08:47:48;11.47;;;5.73;;
18168;SDS011;49877;50.398;30.324;2022-09-02T08:50:20;9.50;;;5.77;;
18168;SDS011;49877;50.398;30.324;2022-09-02T08:52:52;10.07;;;5.57;;
18168;SDS011;49877;50.398;30.324;2022-09-02T08:55:27;13.87;;;5.67;;
18168;SDS011;49877;50.398;30.324;2022-09-02T08:58:00;13.97;;;5.20;;
18168;SDS011;49877;50.398;30.324;2022-09-02T09:00:27;10.40;;;5.80;;
18168;SDS011;49877;50.398;30.324;2022-09-02T09:02:57;11.27;;;5.40;;
18168;SDS011;49877;50.398;30.324;2022-09-02T09:05:35;9.80;;;4.60;;
18168;SDS011;49877;50.398;30.324;2022-09-02T09:08:07;7.83;;;4.50;;
18168;SDS011;49877;50.398;30.324;2022-09-02T09:10:45;6.87;;;4.27;;
18168;SDS011;49877;50.398;30.324;2022-09-02T09:16:27;7.93;;;4.20;;
18168;SDS011;49877;50.398;30.324;2022-09-02T09:19:05;11.43;;;5.47;;
18168;SDS011;49877;50.398;30.324;2022-09-02T09:21:38;12.40;;;7.60;;
18168;SDS011;49877;50.398;30.324;2022-09-02T09:24:06;16.67;;;7.43;;
18168;SDS011;49877;50.398;30.324;2022-09-02T09:26:38;14.53;;;6.27;;
18168;SDS011;49877;50.398;30.324;2022-09-02T09:29:06;11.00;;;5.80;;
18168;SDS011;49877;50.398;30.324;2022-09-02T09:31:32;9.20;;;5.10;;
18168;SDS011;49877;50.398;30.324;2022-09-02T09:34:02;9.47;;;4.90;;
18168;SDS011;49877;50.398;30.324;2022-09-02T09:36:45;8.53;;;3.70;;
18168;SDS011;49877;50.398;30.324;2022-09-02T09:39:25;6.50;;;3.60;;
18168;SDS011;49877;50.398;30.324;2022-09-02T09:41:55;5.23;;;3.20;;
18168;SDS011;49877;50.398;30.324;2022-09-02T09:44:27;6.77;;;3.07;;
18168;SDS011;49877;50.398;30.324;2022-09-02T09:47:03;6.77;;;2.80;;
18168;SDS011;49877;50.398;30.324;2022-09-02T09:49:32;6.33;;;3.03;;
18168;SDS011;49877;50.398;30.324;2022-09-02T09:52:00;5.00;;;3.37;;
18168;SDS011;49877;50.398;30.324;2022-09-02T09:54:28;7.07;;;2.90;;
18168;SDS011;49877;50.398;30.324;2022-09-02T09:56:55;7.27;;;2.93;;
18168;SDS011;49877;50.398;30.324;2022-09-02T09:59:38;8.60;;;3.70;;
18168;SDS011;49877;50.398;30.324;2022-09-02T10:02:10;7.40;;;4.03;;
18168;SDS011;49877;50.398;30.324;2022-09-02T10:04:44;7.87;;;3.93;;
18168;SDS011;49877;50.398;30.324;2022-09-02T10:07:13;6.10;;;3.80;;
18168;SDS011;49877;50.398;30.324;2022-09-02T10:10:06;6.20;;;4.07;;
18168;SDS011;49877;50.398;30.324;2022-09-02T10:12:37;9.20;;;4.33;;
18168;SDS011;49877;50.398;30.324;2022-09-02T10:15:04;9.53;;;4.97;;
18168;SDS011;49877;50.398;30.324;2022-09-02T10:17:34;7.73;;;4.70;;
18168;SDS011;49877;50.398;30.324;2022-09-02T10:20:07;10.17;;;5.17;;
18168;SDS011;49877;50.398;30.324;2022-09-02T10:25:50;7.07;;;3.40;;
18168;SDS011;49877;50.398;30.324;2022-09-02T10:28:35;7.53;;;4.20;;
18168;SDS011;49877;50.398;30.324;2022-09-02T10:31:19;8.90;;;4.80;;
18168;SDS011;49877;50.398;30.324;2022-09-02T10:33:55;10.00;;;6.53;;
18168;SDS011;49877;50.398;30.324;2022-09-02T10:36:31;10.27;;;6.43;;
18168;SDS011;49877;50.398;30.324;2022-09-02T10:39:05;12.60;;;6.00;;
18168;SDS011;49877;50.398;30.324;2022-09-02T10:41:45;20.70;;;6.53;;
18168;SDS011;49877;50.398;30.324;2022-09-02T10:44:29;11.83;;;6.23;;
18168;SDS011;49877;50.398;30.324;2022-09-02T10:47:06;13.47;;;7.33;;
18168;SDS011;49877;50.398;30.324;2022-09-02T10:49:49;15.03;;;7.50;;
18168;SDS011;49877;50.398;30.324;2022-09-02T10:52:30;13.67;;;7.40;;
18168;SDS011;49877;50.398;30.324;2022-09-02T10:55:17;15.00;;;8.07;;
18168;SDS011;49877;50.398;30.324;2022-09-02T10:57:51;13.47;;;7.90;;
18168;SDS011;49877;50.398;30.324;2022-09-02T11:00:23;13.83;;;8.00;;
18168;SDS011;49877;50.398;30.324;2022-09-02T11:02:53;17.37;;;8.20;;
18168;SDS011;49877;50.398;30.324;2022-09-02T11:05:27;13.80;;;8.00;;
18168;SDS011;49877;50.398;30.324;2022-09-02T11:08:00;14.90;;;8.93;;
18168;SDS011;49877;50.398;30.324;2022-09-02T11:10:33;17.57;;;9.07;;
18168;SDS011;49877;50.398;30.324;2022-09-02T11:13:03;14.33;;;8.63;;
18168;SDS011;49877;50.398;30.324;2022-09-02T11:15:38;16.30;;;9.30;;
18168;SDS011;49877;50.398;30.324;2022-09-02T11:18:12;19.30;;;9.90;;
18168;SDS011;49877;50.398;30.324;2022-09-02T11:20:45;18.80;;;9.47;;
18168;SDS011;49877;50.398;30.324;2022-09-02T11:23:19;16.57;;;9.10;;
18168;SDS011;49877;50.398;30.324;2022-09-02T11:25:59;17.47;;;9.27;;
18168;SDS011;49877;50.398;30.324;2022-09-02T11:28:31;16.53;;;9.07;;
18168;SDS011;49877;50.398;30.324;2022-09-02T11:31:09;17.20;;;9.30;;
18168;SDS011;49877;50.398;30.324;2022-09-02T11:33:44;15.90;;;8.53;;
18168;SDS011;49877;50.398;30.324;2022-09-02T11:36:16;16.50;;;9.27;;
18168;SDS011;49877;50.398;30.324;2022-09-02T11:38:44;15.70;;;8.67;;
18168;SDS011;49877;50.398;30.324;2022-09-02T11:41:24;16.27;;;8.97;;
18168;SDS011;49877;50.398;30.324;2022-09-02T11:43:57;14.23;;;8.67;;
18168;SDS011;49877;50.398;30.324;2022-09-02T11:46:40;15.43;;;8.47;;
18168;SDS011;49877;50.398;30.324;2022-09-02T11:49:19;14.43;;;8.43;;
18168;SDS011;49877;50.398;30.324;2022-09-02T11:52:08;15.10;;;9.13;;
18168;SDS011;49877;50.398;30.324;2022-09-02T11:54:48;16.30;;;9.60;;
18168;SDS011;49877;50.398;30.324;2022-09-02T11:57:30;18.40;;;9.27;;
18168;SDS011;49877;50.398;30.324;2022-09-02T12:00:03;16.17;;;8.80;;
18168;SDS011;49877;50.398;30.324;2022-09-02T12:02:53;18.50;;;10.40;;
18168;SDS011;49877;50.398;30.324;2022-09-02T12:05:45;16.17;;;9.40;;
18168;SDS011;49877;50.398;30.324;2022-09-02T12:11:35;17.90;;;10.20;;
18168;SDS011;49877;50.398;30.324;2022-09-02T12:29:34;15.83;;;8.27;;
18168;SDS011;49877;50.398;30.324;2022-09-02T12:32:02;13.60;;;6.87;;
18168;SDS011;49877;50.398;30.324;2022-09-02T12:34:53;13.67;;;7.10;;
18168;SDS011;49877;50.398;30.324;2022-09-02T12:40:35;14.87;;;7.77;;
18168;SDS011;49877;50.398;30.324;2022-09-02T12:43:15;13.00;;;7.53;;
18168;SDS011;49877;50.398;30.324;2022-09-02T12:45:50;17.47;;;7.67;;
18168;SDS011;49877;50.398;30.324;2022-09-02T12:48:19;14.67;;;7.77;;
18168;SDS011;49877;50.398;30.324;2022-09-02T12:50:54;15.73;;;7.80;;
18168;SDS011;49877;50.398;30.324;2022-09-02T12:53:31;14.60;;;7.90;;
18168;SDS011;49877;50.398;30.324;2022-09-02T12:56:01;16.83;;;7.43;;
18168;SDS011;49877;50.398;30.324;2022-09-02T12:58:33;13.50;;;7.47;;
18168;SDS011;49877;50.398;30.324;2022-09-02T13:01:10;10.53;;;6.13;;
18168;SDS011;49877;50.398;30.324;2022-09-02T13:03:57;13.00;;;6.97;;
18168;SDS011;49877;50.398;30.324;2022-09-02T13:06:41;14.67;;;7.37;;
18168;SDS011;49877;50.398;30.324;2022-09-02T13:16:04;10.93;;;5.73;;
18168;SDS011;49877;50.398;30.324;2022-09-02T13:25:09;8.73;;;5.70;;
18168;SDS011;49877;50.398;30.324;2022-09-02T13:28:06;9.37;;;5.80;;
18168;SDS011;49877;50.398;30.324;2022-09-02T13:30:55;14.07;;;6.40;;
18168;SDS011;49877;50.398;30.324;2022-09-02T13:33:33;9.40;;;5.60;;
18168;SDS011;49877;50.398;30.324;2022-09-02T13:36:00;12.57;;;6.03;;
18168;SDS011;49877;50.398;30.324;2022-09-02T13:38:28;10.00;;;5.97;;
18168;SDS011;49877;50.398;30.324;2022-09-02T13:40:58;9.43;;;5.30;;
18168;SDS011;49877;50.398;30.324;2022-09-02T13:43:25;9.13;;;5.47;;
18168;SDS011;49877;50.398;30.324;2022-09-02T13:45:53;8.53;;;5.50;;
18168;SDS011;49877;50.398;30.324;2022-09-02T13:48:25;11.63;;;6.27;;
18168;SDS011;49877;50.398;30.324;2022-09-02T13:50:53;10.13;;;5.03;;
18168;SDS011;49877;50.398;30.324;2022-09-02T13:53:23;8.07;;;5.07;;
18168;SDS011;49877;50.398;30.324;2022-09-02T13:55:53;9.90;;;5.20;;
18168;SDS011;49877;50.398;30.324;2022-09-02T13:58:33;9.90;;;4.90;;
18168;SDS011;49877;50.398;30.324;2022-09-02T14:01:16;11.10;;;5.70;;
18168;SDS011;49877;50.398;30.324;2022-09-02T14:03:45;9.13;;;5.27;;
18168;SDS011;49877;50.398;30.324;2022-09-02T14:06:14;10.90;;;5.57;;
18168;SDS011;49877;50.398;30.324;2022-09-02T14:08:41;10.90;;;5.33;;
18168;SDS011;49877;50.398;30.324;2022-09-02T14:11:12;8.37;;;4.40;;
18168;SDS011;49877;50.398;30.324;2022-09-02T14:13:45;9.17;;;4.70;;
18168;SDS011;49877;50.398;30.324;2022-09-02T14:16:24;8.30;;;4.23;;
18168;SDS011;49877;50.398;30.324;2022-09-02T14:19:02;8.17;;;5.03;;
18168;SDS011;49877;50.398;30.324;2022-09-02T14:21:30;8.80;;;5.07;;
18168;SDS011;49877;50.398;30.324;2022-09-02T14:23:57;5.77;;;4.03;;
18168;SDS011;49877;50.398;30.324;2022-09-02T14:26:27;7.47;;;4.13;;
18168;SDS011;49877;50.398;30.324;2022-09-02T14:28:58;8.47;;;3.97;;
18168;SDS011;49877;50.398;30.324;2022-09-02T14:31:27;6.40;;;3.70;;
18168;SDS011;49877;50.398;30.324;2022-09-02T14:33:57;8.60;;;4.27;;
18168;SDS011;49877;50.398;30.324;2022-09-02T14:36:30;5.90;;;3.20;;
18168;SDS011;49877;50.398;30.324;2022-09-02T14:39:10;8.40;;;4.07;;
18168;SDS011;49877;50.398;30.324;2022-09-02T14:41:42;8.13;;;4.07;;
18168;SDS011;49877;50.398;30.324;2022-09-02T14:44:16;6.97;;;3.90;;
18168;SDS011;49877;50.398;30.324;2022-09-02T14:46:47;6.57;;;4.00;;
18168;SDS011;49877;50.398;30.324;2022-09-02T14:49:19;7.80;;;4.07;;
18168;SDS011;49877;50.398;30.324;2022-09-02T14:51:48;6.97;;;4.23;;
18168;SDS011;49877;50.398;30.324;2022-09-02T14:54:33;6.93;;;4.60;;
18168;SDS011;49877;50.398;30.324;2022-09-02T14:57:02;6.30;;;4.43;;
18168;SDS011;49877;50.398;30.324;2022-09-02T14:59:30;10.90;;;6.50;;
18168;SDS011;49877;50.398;30.324;2022-09-02T15:01:57;16.40;;;9.37;;
18168;SDS011;49877;50.398;30.324;2022-09-02T15:04:25;20.07;;;10.70;;
18168;SDS011;49877;50.398;30.324;2022-09-02T15:06:52;19.37;;;10.03;;
18168;SDS011;49877;50.398;30.324;2022-09-02T15:09:19;19.20;;;10.67;;
18168;SDS011;49877;50.398;30.324;2022-09-02T15:11:47;16.87;;;10.00;;
18168;SDS011;49877;50.398;30.324;2022-09-02T15:14:16;16.70;;;9.67;;
18168;SDS011;49877;50.398;30.324;2022-09-02T15:16:44;18.10;;;10.43;;
18168;SDS011;49877;50.398;30.324;2022-09-02T15:19:12;19.10;;;10.43;;